Time;durP1;ratioP1;P1;durP2;ratioP2;P2;SDS_P1;SDS_P2;PMS_P1;PMS_P2;Temp;Humidity;BMP_temperature;BMP_pressure;BME280_temperature;BME280_humidity;BME280_pressure;Samples;Min_cycle;Max_cycle;Signal;HPM_P1;HPM_P2
2023/10/21 00:00:34;;;;;;;12.32;11.13;;;;;;;;;;6068382;23;20015;-71
2023/10/21 00:03:00;;;;;;;8.23;7.43;;;;;;;;;;6092916;23;20014;-71
2023/10/21 00:05:27;;;;;;;12.00;11.02;;;;;;;;;;6093333;23;20041;-71
2023/10/21 00:07:53;;;;;;;8.55;7.93;;;;;;;;;;6092897;23;20018;-71
2023/10/21 00:10:19;;;;;;;11.02;10.02;;;;;;;;;;6093239;23;20097;-71
2023/10/21 00:12:45;;;;;;;10.15;9.27;;;;;;;;;;6093132;23;20010;-71
2023/10/21 00:15:12;;;;;;;10.80;9.80;;;;;;;;;;6093034;23;20515;-72
2023/10/21 00:17:38;;;;;;;12.07;10.88;;;;;;;;;;6067929;23;20396;-71
2023/10/21 00:20:08;;;;;;;10.48;9.63;;;;;;;;;;6093080;23;20010;-72
2023/10/21 00:22:35;;;;;;;12.85;11.75;;;;;;;;;;6067891;23;20018;-72
2023/10/21 00:25:04;;;;;;;13.00;11.80;;;;;;;;;;6093377;23;20017;-71
2023/10/21 00:27:30;;;;;;;10.80;9.82;;;;;;;;;;6093315;23;20018;-70
2023/10/21 00:29:57;;;;;;;8.15;7.45;;;;;;;;;;6092574;23;20010;-72
2023/10/21 00:32:22;;;;;;;11.07;10.07;;;;;;;;;;6093282;23;20469;-73
2023/10/21 00:34:49;;;;;;;9.38;8.52;;;;;;;;;;6067473;23;20551;-71
2023/10/21 00:37:15;;;;;;;10.52;9.70;;;;;;;;;;6093272;23;20025;-72
2023/10/21 00:39:42;;;;;;;11.35;10.25;;;;;;;;;;6094022;23;20032;-73
2023/10/21 00:42:09;;;;;;;10.45;9.55;;;;;;;;;;6093305;23;20641;-72
2023/10/21 00:44:34;;;;;;;9.98;9.13;;;;;;;;;;6093577;23;20017;-72
2023/10/21 00:47:01;;;;;;;11.77;10.60;;;;;;;;;;6092998;23;20025;-72
2023/10/21 00:49:30;;;;;;;9.88;8.98;;;;;;;;;;6044534;23;20014;-72
2023/10/21 00:51:56;;;;;;;9.70;8.90;;;;;;;;;;6067610;23;20017;-71
2023/10/21 00:54:22;;;;;;;12.75;11.85;;;;;;;;;;6068569;23;20010;-71
2023/10/21 00:56:48;;;;;;;11.93;10.82;;;;;;;;;;6093725;23;20030;-71
2023/10/21 00:59:14;;;;;;;11.77;10.77;;;;;;;;;;6093541;23;20253;-72
2023/10/21 01:01:40;;;;;;;12.02;10.57;;;;;;;;;;6093223;23;20025;-71
2023/10/21 01:04:06;;;;;;;12.68;11.57;;;;;;;;;;6067169;23;20038;-72
2023/10/21 01:06:32;;;;;;;13.35;12.25;;;;;;;;;;6093800;23;20182;-73
2023/10/21 01:08:59;;;;;;;12.65;10.70;;;;;;;;;;6043412;23;20527;-71
2023/10/21 01:11:25;;;;;;;9.93;9.02;;;;;;;;;;6093271;23;20010;-72
2023/10/21 01:13:54;;;;;;;7.88;7.28;;;;;;;;;;6092667;23;20021;-73
2023/10/21 01:16:20;;;;;;;11.23;10.23;;;;;;;;;;6092755;23;20018;-72
2023/10/21 01:18:46;;;;;;;7.53;6.82;;;;;;;;;;6067535;23;20017;-72
2023/10/21 01:21:13;;;;;;;7.00;6.35;;;;;;;;;;6092505;23;20018;-72
2023/10/21 01:23:39;;;;;;;9.80;8.98;;;;;;;;;;6092571;23;20109;-72
2023/10/21 01:26:05;;;;;;;8.90;8.20;;;;;;;;;;6067412;23;20018;-71
2023/10/21 01:28:34;;;;;;;7.30;6.50;;;;;;;;;;6092511;23;20057;-73
2023/10/21 01:31:00;;;;;;;8.68;7.97;;;;;;;;;;6092545;23;20018;-71
2023/10/21 01:33:26;;;;;;;6.18;5.68;;;;;;;;;;6093310;23;20018;-72
2023/10/21 01:35:52;;;;;;;5.70;5.20;;;;;;;;;;6092744;23;20026;-72
2023/10/21 01:38:20;;;;;;;6.53;5.93;;;;;;;;;;6093190;23;20073;-72
2023/10/21 01:40:47;;;;;;;10.98;9.85;;;;;;;;;;6067405;23;20081;-72
2023/10/21 01:43:13;;;;;;;6.10;5.55;;;;;;;;;;6092852;23;20017;-73
2023/10/21 01:45:40;;;;;;;7.90;7.20;;;;;;;;;;6067379;23;20040;-73
2023/10/21 01:48:08;;;;;;;8.00;7.30;;;;;;;;;;6092324;23;20010;-72
2023/10/21 01:50:35;;;;;;;6.72;6.13;;;;;;;;;;6067253;23;20018;-73
2023/10/21 01:53:01;;;;;;;9.13;8.43;;;;;;;;;;6092106;23;20045;-72
2023/10/21 01:55:27;;;;;;;6.13;5.60;;;;;;;;;;6092334;23;20039;-73
2023/10/21 01:57:53;;;;;;;9.02;8.32;;;;;;;;;;6066967;23;20021;-72
2023/10/21 02:00:19;;;;;;;7.15;6.55;;;;;;;;;;6066990;23;20367;-72
2023/10/21 02:02:49;;;;;;;11.88;6.30;;;;;;;;;;6092974;23;20010;-73
2023/10/21 02:05:16;;;;;;;10.15;9.35;;;;;;;;;;6043507;23;20024;-73
2023/10/21 02:07:42;;;;;;;8.65;7.85;;;;;;;;;;6067787;23;20084;-72
2023/10/21 02:10:09;;;;;;;5.47;5.07;;;;;;;;;;6092874;23;20065;-71
2023/10/21 02:12:35;;;;;;;7.70;7.13;;;;;;;;;;6067541;23;20539;-73
2023/10/21 02:15:05;;;;;;;8.10;7.47;;;;;;;;;;6092425;23;20017;-72
2023/10/21 02:17:32;;;;;;;7.32;6.82;;;;;;;;;;6068118;23;20014;-72
2023/10/21 02:20:18;;;;;;;5.55;5.13;;;;;;;;;;6052704;23;20022;-71
2023/10/21 02:22:44;;;;;;;6.18;5.78;;;;;;;;;;6096543;23;20018;-71
2023/10/21 02:25:14;;;;;;;5.47;4.80;;;;;;;;;;6096830;23;20014;-73
2023/10/21 02:27:40;;;;;;;6.63;6.07;;;;;;;;;;6047774;23;20018;-70
2023/10/21 02:30:08;;;;;;;4.50;4.20;;;;;;;;;;6095061;23;20078;-72
2023/10/21 02:32:34;;;;;;;6.60;6.05;;;;;;;;;;6043814;23;20014;-73
2023/10/21 02:35:00;;;;;;;5.53;5.18;;;;;;;;;;6092174;23;20114;-72
2023/10/21 02:37:26;;;;;;;5.90;5.40;;;;;;;;;;6067157;23;20014;-71
2023/10/21 02:39:52;;;;;;;8.70;8.10;;;;;;;;;;6092344;23;20024;-72
2023/10/21 02:42:17;;;;;;;8.50;7.70;;;;;;;;;;6092596;23;20046;-72
2023/10/21 02:44:45;;;;;;;7.90;7.30;;;;;;;;;;6093032;23;20014;-71
2023/10/21 02:47:11;;;;;;;8.02;7.03;;;;;;;;;;6019279;23;20010;-72
2023/10/21 02:49:37;;;;;;;7.35;6.65;;;;;;;;;;6066606;23;20019;-72
2023/10/21 02:52:03;;;;;;;6.47;5.90;;;;;;;;;;6066675;23;20015;-71
2023/10/21 02:54:30;;;;;;;6.95;6.03;;;;;;;;;;6094798;23;20018;-72
2023/10/21 02:56:56;;;;;;;8.40;7.72;;;;;;;;;;6094237;23;20467;-72
2023/10/21 02:59:23;;;;;;;5.05;4.65;;;;;;;;;;6094524;23;20038;-71
2023/10/21 03:01:48;;;;;;;5.35;4.95;;;;;;;;;;6094927;23;20022;-72
2023/10/21 03:04:14;;;;;;;6.10;5.60;;;;;;;;;;6068362;23;20061;-72
2023/10/21 03:06:41;;;;;;;7.43;6.63;;;;;;;;;;6094530;23;20046;-71
2023/10/21 03:09:07;;;;;;;6.20;5.70;;;;;;;;;;6044849;23;20024;-73
2023/10/21 03:11:33;;;;;;;6.10;5.70;;;;;;;;;;6094366;23;20395;-72
2023/10/21 03:14:00;;;;;;;5.00;4.60;;;;;;;;;;6093930;23;20025;-72
2023/10/21 03:16:26;;;;;;;8.00;7.50;;;;;;;;;;6044117;23;20415;-73
2023/10/21 03:18:52;;;;;;;7.57;5.90;;;;;;;;;;6068490;23;20014;-73
2023/10/21 03:21:18;;;;;;;7.53;6.90;;;;;;;;;;6068417;23;20065;-73
2023/10/21 03:23:44;;;;;;;7.57;6.97;;;;;;;;;;6063763;23;20119;-72
2023/10/21 03:26:11;;;;;;;5.72;5.32;;;;;;;;;;6063678;23;20282;-72
2023/10/21 03:28:39;;;;;;;8.82;8.02;;;;;;;;;;6065634;23;20015;-72
2023/10/21 03:31:05;;;;;;;7.70;7.18;;;;;;;;;;6063191;23;20046;-71
2023/10/21 03:33:31;;;;;;;6.55;5.80;;;;;;;;;;6065116;23;20018;-71
2023/10/21 03:35:58;;;;;;;3.72;3.53;;;;;;;;;;6063616;23;20026;-71
2023/10/21 03:38:24;;;;;;;7.07;6.38;;;;;;;;;;6039804;23;20042;-71
2023/10/21 03:40:55;;;;;;;6.75;6.32;;;;;;;;;;6063585;23;20430;-71
2023/10/21 03:43:21;;;;;;;7.60;7.10;;;;;;;;;;6063393;23;20098;-72
2023/10/21 03:45:48;;;;;;;7.38;6.80;;;;;;;;;;6063378;23;20023;-71
2023/10/21 03:48:14;;;;;;;7.05;6.35;;;;;;;;;;6063227;23;20011;-71
2023/10/21 03:50:40;;;;;;;7.85;7.15;;;;;;;;;;6065010;23;20341;-72
2023/10/21 03:53:06;;;;;;;5.43;5.03;;;;;;;;;;6064601;23;20018;-71
2023/10/21 03:55:32;;;;;;;6.88;6.28;;;;;;;;;;6063062;23;20046;-71
2023/10/21 03:57:58;;;;;;;7.60;6.97;;;;;;;;;;6065017;23;20412;-72
2023/10/21 04:00:24;;;;;;;6.53;5.93;;;;;;;;;;6064506;23;20388;-74
2023/10/21 04:02:50;;;;;;;5.65;5.25;;;;;;;;;;6063436;23;20010;-73
2023/10/21 04:05:17;;;;;;;5.05;4.57;;;;;;;;;;6064320;23;20021;-72
2023/10/21 04:07:44;;;;;;;7.28;6.78;;;;;;;;;;6063438;23;20021;-72
2023/10/21 04:10:10;;;;;;;5.10;4.80;;;;;;;;;;6063002;23;20397;-72
2023/10/21 04:12:36;;;;;;;4.78;4.47;;;;;;;;;;6065017;23;20428;-71
2023/10/21 04:15:03;;;;;;;5.68;5.28;;;;;;;;;;6064368;23;20042;-71
2023/10/21 04:17:30;;;;;;;6.82;6.38;;;;;;;;;;6064777;23;20483;-72
2023/10/21 04:19:57;;;;;;;6.53;6.13;;;;;;;;;;6064780;23;20018;-72
2023/10/21 04:22:23;;;;;;;7.88;7.28;;;;;;;;;;6064417;23;20042;-72
2023/10/21 04:24:48;;;;;;;4.95;4.65;;;;;;;;;;6067665;23;20109;-72
2023/10/21 04:27:15;;;;;;;5.88;5.47;;;;;;;;;;6093200;23;20021;-72
2023/10/21 04:29:40;;;;;;;7.13;5.40;;;;;;;;;;6067353;23;20010;-72
2023/10/21 04:32:06;;;;;;;7.22;6.57;;;;;;;;;;6093145;23;20471;-69
2023/10/21 04:34:32;;;;;;;6.63;5.65;;;;;;;;;;6093191;23;20085;-72
2023/10/21 04:36:59;;;;;;;7.65;7.15;;;;;;;;;;6093173;23;20018;-72
2023/10/21 04:39:25;;;;;;;6.10;5.70;;;;;;;;;;6067443;23;20006;-71
2023/10/21 04:41:51;;;;;;;6.38;5.88;;;;;;;;;;6093212;23;20580;-73
2023/10/21 04:44:17;;;;;;;8.00;7.50;;;;;;;;;;6092861;23;20333;-73
2023/10/21 04:46:43;;;;;;;6.35;5.85;;;;;;;;;;6067715;23;20010;-72
2023/10/21 04:49:09;;;;;;;5.75;5.35;;;;;;;;;;6092697;23;20025;-72
2023/10/21 04:51:36;;;;;;;7.07;6.57;;;;;;;;;;6092906;23;20015;-72
2023/10/21 04:54:03;;;;;;;3.78;3.58;;;;;;;;;;6067530;23;20018;-72
2023/10/21 04:56:29;;;;;;;6.70;5.28;;;;;;;;;;6068335;23;20379;-72
2023/10/21 04:58:55;;;;;;;4.80;4.50;;;;;;;;;;6093740;23;20010;-73
2023/10/21 05:01:21;;;;;;;4.93;4.53;;;;;;;;;;6092843;23;20018;-72
2023/10/21 05:03:48;;;;;;;5.20;4.80;;;;;;;;;;6093330;23;20097;-72
2023/10/21 05:06:14;;;;;;;3.90;3.60;;;;;;;;;;6093175;23;20014;-73
2023/10/21 05:08:40;;;;;;;4.78;4.47;;;;;;;;;;6095376;23;20097;-72
2023/10/21 05:11:06;;;;;;;3.90;3.60;;;;;;;;;;6070691;23;20018;-71
2023/10/21 05:13:33;;;;;;;5.05;4.75;;;;;;;;;;6096127;23;20014;-72
2023/10/21 05:15:59;;;;;;;5.00;4.70;;;;;;;;;;6093805;23;20113;-72
2023/10/21 05:18:25;;;;;;;5.05;4.68;;;;;;;;;;6092397;23;20011;-72
2023/10/21 05:20:51;;;;;;;4.03;3.72;;;;;;;;;;6092774;23;20018;-72
2023/10/21 05:23:17;;;;;;;4.70;4.40;;;;;;;;;;6092174;23;20485;-72
2023/10/21 05:25:44;;;;;;;4.18;3.80;;;;;;;;;;6093199;23;20042;-71
2023/10/21 05:28:10;;;;;;;5.30;4.90;;;;;;;;;;6092340;23;20011;-72
2023/10/21 05:30:36;;;;;;;5.28;4.43;;;;;;;;;;6092567;23;20014;-72
2023/10/21 05:33:04;;;;;;;4.47;4.07;;;;;;;;;;6092970;23;20055;-72
2023/10/21 05:35:30;;;;;;;4.10;3.80;;;;;;;;;;6092515;23;20026;-72
2023/10/21 05:37:56;;;;;;;6.22;5.80;;;;;;;;;;6092294;23;20039;-71
2023/10/21 05:40:22;;;;;;;6.03;5.53;;;;;;;;;;6091991;23;20062;-72
2023/10/21 05:42:48;;;;;;;5.28;4.80;;;;;;;;;;6092774;23;20097;-71
2023/10/21 05:45:14;;;;;;;4.80;4.50;;;;;;;;;;6092331;23;20053;-70
2023/10/21 05:47:40;;;;;;;4.40;4.07;;;;;;;;;;6066949;23;20017;-70
2023/10/21 05:50:07;;;;;;;4.57;4.20;;;;;;;;;;6091725;23;20053;-70
2023/10/21 05:52:33;;;;;;;6.43;5.88;;;;;;;;;;6092292;23;20041;-70
2023/10/21 05:55:01;;;;;;;7.47;6.78;;;;;;;;;;6103887;23;20021;-73
2023/10/21 05:57:29;;;;;;;5.75;4.97;;;;;;;;;;6152583;23;20021;-73
2023/10/21 05:59:55;;;;;;;5.20;4.82;;;;;;;;;;6125466;23;20016;-74
2023/10/21 06:02:21;;;;;;;6.95;6.13;;;;;;;;;;6125091;23;20487;-73
2023/10/21 06:04:47;;;;;;;5.20;4.90;;;;;;;;;;6151376;23;20009;-72
2023/10/21 06:07:13;;;;;;;4.78;4.47;;;;;;;;;;6151604;23;20009;-73
2023/10/21 06:09:39;;;;;;;6.20;5.60;;;;;;;;;;6125623;23;20017;-74
2023/10/21 06:12:06;;;;;;;5.10;4.70;;;;;;;;;;6151267;23;20014;-75
2023/10/21 06:14:33;;;;;;;9.10;4.03;;;;;;;;;;6100614;23;20450;-77
2023/10/21 06:16:59;;;;;;;4.97;4.68;;;;;;;;;;6124687;23;20053;-73
2023/10/21 06:19:25;;;;;;;6.22;3.72;;;;;;;;;;6125550;23;20735;-74
2023/10/21 06:21:53;;;;;;;4.05;3.75;;;;;;;;;;6151420;23;20010;-75
2023/10/21 06:24:19;;;;;;;4.22;3.92;;;;;;;;;;6151487;23;20017;-76
2023/10/21 06:26:45;;;;;;;3.90;3.60;;;;;;;;;;6125039;23;20017;-75
2023/10/21 06:29:11;;;;;;;4.00;3.80;;;;;;;;;;6100748;23;20010;-75
2023/10/21 06:31:37;;;;;;;4.22;3.83;;;;;;;;;;6151128;23;20052;-76
2023/10/21 06:34:03;;;;;;;8.82;2.85;;;;;;;;;;6125544;23;20021;-74
2023/10/21 06:36:29;;;;;;;4.15;3.95;;;;;;;;;;6151198;23;20021;-76
2023/10/21 06:38:55;;;;;;;4.38;4.07;;;;;;;;;;6124931;23;20013;-76
2023/10/21 06:41:21;;;;;;;4.57;4.28;;;;;;;;;;6124511;23;20454;-75
2023/10/21 06:43:48;;;;;;;4.40;4.10;;;;;;;;;;6151258;23;20009;-74
2023/10/21 06:46:15;;;;;;;3.72;3.53;;;;;;;;;;6124755;23;20069;-74
2023/10/21 06:48:42;;;;;;;5.35;3.92;;;;;;;;;;6151627;23;20010;-75
2023/10/21 06:51:08;;;;;;;4.82;4.53;;;;;;;;;;6125024;23;20024;-74
2023/10/21 06:53:35;;;;;;;5.03;4.57;;;;;;;;;;6125064;23;20020;-75
2023/10/21 06:56:01;;;;;;;5.75;4.43;;;;;;;;;;6150720;23;20036;-75
2023/10/21 06:58:27;;;;;;;4.47;4.07;;;;;;;;;;6151304;23;20009;-75
2023/10/21 07:00:53;;;;;;;4.05;3.80;;;;;;;;;;6151101;23;20487;-73
2023/10/21 07:03:19;;;;;;;4.65;4.20;;;;;;;;;;6161789;23;20830;-78
2023/10/21 07:05:45;;;;;;;3.95;3.75;;;;;;;;;;6150575;23;20014;-76
2023/10/21 07:08:11;;;;;;;5.07;4.78;;;;;;;;;;6148745;23;20489;-78
2023/10/21 07:10:38;;;;;;;4.05;3.75;;;;;;;;;;6149864;23;20009;-78
2023/10/21 07:13:04;;;;;;;4.07;3.88;;;;;;;;;;6151467;23;20370;-77
2023/10/21 07:15:33;;;;;;;4.95;4.50;;;;;;;;;;6149430;23;20090;-78
2023/10/21 07:17:59;;;;;;;4.82;4.35;;;;;;;;;;6149699;23;20524;-79
2023/10/21 07:20:26;;;;;;;3.58;3.38;;;;;;;;;;6150534;23;20013;-78
2023/10/21 07:22:52;;;;;;;3.42;3.22;;;;;;;;;;6154490;23;20014;-79
2023/10/21 07:25:18;;;;;;;3.42;3.22;;;;;;;;;;6163508;23;20014;-82
2023/10/21 07:27:45;;;;;;;4.07;3.78;;;;;;;;;;6167727;23;20021;-78
2023/10/21 07:30:11;;;;;;;6.05;4.20;;;;;;;;;;6146126;23;20545;-76
2023/10/21 07:32:38;;;;;;;4.75;4.45;;;;;;;;;;6147843;23;20020;-76
2023/10/21 07:35:04;;;;;;;5.07;4.60;;;;;;;;;;6147781;23;20438;-74
2023/10/21 07:37:30;;;;;;;5.22;4.82;;;;;;;;;;6171448;23;20388;-75
2023/10/21 07:39:58;;;;;;;7.35;6.68;;;;;;;;;;6149081;23;20014;-74
2023/10/21 07:42:24;;;;;;;7.40;6.70;;;;;;;;;;6149834;23;20014;-74
2023/10/21 07:44:50;;;;;;;5.88;5.47;;;;;;;;;;6150388;23;20104;-75
2023/10/21 07:47:16;;;;;;;5.65;5.25;;;;;;;;;;6150976;23;20088;-74
2023/10/21 07:49:42;;;;;;;7.35;6.32;;;;;;;;;;6152087;23;20041;-75
2023/10/21 07:52:09;;;;;;;6.50;6.00;;;;;;;;;;6151287;23;20469;-74
2023/10/21 07:54:37;;;;;;;7.32;6.72;;;;;;;;;;6150963;23;20116;-74
2023/10/21 07:57:04;;;;;;;4.38;4.07;;;;;;;;;;6150368;23;20025;-75
2023/10/21 07:59:30;;;;;;;6.13;5.57;;;;;;;;;;6150856;23;20017;-75
2023/10/21 08:01:56;;;;;;;5.53;5.10;;;;;;;;;;6151292;23;20502;-75
2023/10/21 08:04:22;;;;;;;12.05;8.10;;;;;;;;;;6151104;23;20013;-75
2023/10/21 08:06:48;;;;;;;6.22;5.45;;;;;;;;;;6149377;23;20020;-75
2023/10/21 08:09:15;;;;;;;4.93;4.47;;;;;;;;;;6148939;23;20014;-76
2023/10/21 08:11:43;;;;;;;5.88;5.28;;;;;;;;;;6150547;23;20477;-76
2023/10/21 08:14:12;;;;;;;6.45;5.28;;;;;;;;;;6150019;23;20037;-76
2023/10/21 08:16:38;;;;;;;5.53;5.13;;;;;;;;;;6148768;23;20097;-76
2023/10/21 08:19:04;;;;;;;5.80;5.30;;;;;;;;;;6151584;23;20532;-76
2023/10/21 08:21:31;;;;;;;5.45;4.68;;;;;;;;;;6149055;23;20505;-77
2023/10/21 08:24:00;;;;;;;6.45;5.82;;;;;;;;;;6150097;23;20016;-74
2023/10/21 08:26:28;;;;;;;3.75;3.47;;;;;;;;;;6150130;23;20552;-78
2023/10/21 08:28:54;;;;;;;4.82;4.53;;;;;;;;;;6150359;23;20014;-76
2023/10/21 08:31:22;;;;;;;4.95;4.55;;;;;;;;;;6150261;23;20092;-77
2023/10/21 08:33:48;;;;;;;9.32;6.82;;;;;;;;;;6150309;23;20025;-77
2023/10/21 08:36:18;;;;;;;5.13;4.82;;;;;;;;;;6147375;23;20025;-74
2023/10/21 08:38:46;;;;;;;6.07;5.57;;;;;;;;;;6096993;23;20104;-75
2023/10/21 08:41:12;;;;;;;4.97;4.68;;;;;;;;;;6146993;23;20060;-75
2023/10/21 08:43:38;;;;;;;3.90;3.70;;;;;;;;;;6148681;23;20096;-74
2023/10/21 08:46:05;;;;;;;3.88;3.58;;;;;;;;;;6147221;23;20024;-74
2023/10/21 08:48:32;;;;;;;4.80;4.35;;;;;;;;;;6122594;23;20010;-75
2023/10/21 08:50:57;;;;;;;4.60;4.30;;;;;;;;;;6149129;23;20049;-75
2023/10/21 08:53:23;;;;;;;15.50;3.88;;;;;;;;;;6149114;23;20036;-75
2023/10/21 08:55:49;;;;;;;3.70;3.45;;;;;;;;;;6148856;23;20044;-75
2023/10/21 08:58:15;;;;;;;3.42;3.22;;;;;;;;;;6124695;23;20037;-75
2023/10/21 09:00:42;;;;;;;4.07;3.60;;;;;;;;;;6149613;23;20060;-75
2023/10/21 09:03:09;;;;;;;5.93;4.45;;;;;;;;;;6148553;23;20049;-75
2023/10/21 09:05:36;;;;;;;8.65;7.63;;;;;;;;;;6150584;23;20024;-75
2023/10/21 09:08:02;;;;;;;4.22;3.75;;;;;;;;;;6149752;23;20089;-74
2023/10/21 09:10:30;;;;;;;4.38;4.07;;;;;;;;;;6149017;23;20049;-75
2023/10/21 09:12:56;;;;;;;6.15;5.65;;;;;;;;;;6150936;23;20013;-75
2023/10/21 09:15:34;;;;;;;5.00;4.05;;;;;;;;;;6149071;23;20025;-75
2023/10/21 09:18:08;;;;;;;3.83;3.58;;;;;;;;;;6149999;23;20354;-74
2023/10/21 09:20:34;;;;;;;4.82;4.53;;;;;;;;;;6151408;23;20096;-74
2023/10/21 09:23:02;;;;;;;4.25;3.85;;;;;;;;;;6150191;23;20013;-75
2023/10/21 09:25:28;;;;;;;4.57;4.25;;;;;;;;;;6151236;23;20013;-74
2023/10/21 09:27:55;;;;;;;5.72;4.43;;;;;;;;;;6149994;23;20024;-74
2023/10/21 09:30:22;;;;;;;5.18;4.88;;;;;;;;;;6149676;23;20009;-74
2023/10/21 09:32:49;;;;;;;5.45;4.50;;;;;;;;;;6151711;23;20018;-73
2023/10/21 09:35:26;;;;;;;5.13;4.72;;;;;;;;;;6149420;23;20010;-76
2023/10/21 09:37:52;;;;;;;4.70;4.30;;;;;;;;;;6151548;23;20073;-75
2023/10/21 09:40:19;;;;;;;3.10;2.90;;;;;;;;;;6152916;23;20532;-75
2023/10/21 09:42:47;;;;;;;5.07;4.78;;;;;;;;;;6152614;23;20063;-74
2023/10/21 09:45:13;;;;;;;5.68;5.20;;;;;;;;;;6150832;23;20020;-75
2023/10/21 09:47:40;;;;;;;6.13;4.72;;;;;;;;;;6151421;23;20048;-74
2023/10/21 09:50:09;;;;;;;4.65;4.35;;;;;;;;;;6182930;23;20017;-74
2023/10/21 09:52:48;;;;;;;4.72;4.43;;;;;;;;;;6168544;23;19997;-74
2023/10/21 09:55:14;;;;;;;4.63;4.10;;;;;;;;;;6151621;23;20080;-75
2023/10/21 09:57:42;;;;;;;4.35;4.05;;;;;;;;;;6152013;23;20028;-75
2023/10/21 10:00:09;;;;;;;3.67;3.47;;;;;;;;;;6151576;23;20080;-74
2023/10/21 10:02:36;;;;;;;4.65;4.03;;;;;;;;;;6151304;23;20064;-71
2023/10/21 10:05:08;;;;;;;3.95;3.75;;;;;;;;;;6152670;23;20006;-73
2023/10/21 10:07:35;;;;;;;4.38;4.07;;;;;;;;;;6148672;23;20017;-73
2023/10/21 10:10:02;;;;;;;4.38;4.03;;;;;;;;;;6151797;23;20013;-74
2023/10/21 10:12:30;;;;;;;5.38;4.88;;;;;;;;;;6125015;23;20013;-74
2023/10/21 10:14:56;;;;;;;6.47;3.80;;;;;;;;;;6151529;23;20009;-73
2023/10/21 10:17:42;;;;;;;3.95;3.60;;;;;;;;;;6151970;23;20026;-73
2023/10/21 10:20:22;;;;;;;3.35;3.15;;;;;;;;;;6151190;23;20021;-73
2023/10/21 10:22:49;;;;;;;4.00;3.70;;;;;;;;;;6150701;23;20421;-73
2023/10/21 10:25:32;;;;;;;4.30;4.00;;;;;;;;;;6125762;23;20014;-73
2023/10/21 10:27:59;;;;;;;4.35;4.03;;;;;;;;;;6152123;23;20017;-74
2023/10/21 10:30:30;;;;;;;3.50;3.20;;;;;;;;;;6150662;23;20023;-73
2023/10/21 10:32:57;;;;;;;4.20;3.90;;;;;;;;;;6151026;23;20456;-73
2023/10/21 10:35:30;;;;;;;3.67;3.38;;;;;;;;;;6125917;23;20018;-73
2023/10/21 10:37:56;;;;;;;4.00;3.60;;;;;;;;;;6152121;23;20433;-73
2023/10/21 10:40:32;;;;;;;3.70;3.42;;;;;;;;;;6151494;23;20326;-74
2023/10/21 10:42:58;;;;;;;2.83;2.63;;;;;;;;;;6152019;23;20024;-73
2023/10/21 10:45:25;;;;;;;4.32;4.00;;;;;;;;;;6149696;23;20056;-73
2023/10/21 10:48:01;;;;;;;4.57;4.25;;;;;;;;;;6151650;23;20103;-74
2023/10/21 10:50:27;;;;;;;5.32;4.82;;;;;;;;;;6151536;23;20010;-73
2023/10/21 10:52:54;;;;;;;4.80;4.40;;;;;;;;;;6151851;23;20018;-73
2023/10/21 10:55:21;;;;;;;3.97;3.67;;;;;;;;;;6150984;23;20022;-73
2023/10/21 10:57:48;;;;;;;4.15;3.85;;;;;;;;;;6151683;23;20287;-73
2023/10/21 11:00:20;;;;;;;4.20;3.90;;;;;;;;;;6150008;23;20037;-73
2023/10/21 11:02:47;;;;;;;4.38;4.00;;;;;;;;;;6150032;23;20037;-73
2023/10/21 11:05:17;;;;;;;4.85;4.47;;;;;;;;;;6125726;23;20405;-73
2023/10/21 11:07:44;;;;;;;6.20;3.72;;;;;;;;;;6152052;23;20027;-72
2023/10/21 11:10:12;;;;;;;4.35;3.95;;;;;;;;;;6151549;23;20347;-73
2023/10/21 11:12:39;;;;;;;11.27;6.75;;;;;;;;;;6151167;23;20265;-73
2023/10/21 11:15:06;;;;;;;5.03;4.43;;;;;;;;;;6175634;23;20427;-72
2023/10/21 11:17:33;;;;;;;6.88;4.18;;;;;;;;;;6153081;23;20053;-73
2023/10/21 11:19:59;;;;;;;4.97;3.70;;;;;;;;;;6153954;23;20144;-73
2023/10/21 11:22:26;;;;;;;4.30;3.90;;;;;;;;;;6153242;23;20049;-73
2023/10/21 11:24:52;;;;;;;4.32;3.03;;;;;;;;;;6153462;23;20056;-72
2023/10/21 11:27:18;;;;;;;4.05;3.33;;;;;;;;;;6151474;23;20016;-73
2023/10/21 11:29:45;;;;;;;3.50;3.10;;;;;;;;;;6153379;23;20310;-74
2023/10/21 11:32:12;;;;;;;5.97;3.20;;;;;;;;;;6154020;23;20358;-73
2023/10/21 11:34:38;;;;;;;4.00;3.47;;;;;;;;;;6153944;23;20468;-73
2023/10/21 11:37:06;;;;;;;3.45;3.28;;;;;;;;;;6151408;23;20446;-73
2023/10/21 11:39:32;;;;;;;3.20;3.00;;;;;;;;;;6153402;23;20057;-73
2023/10/21 11:41:59;;;;;;;4.55;3.30;;;;;;;;;;6153601;23;20401;-73
2023/10/21 11:44:31;;;;;;;3.72;3.50;;;;;;;;;;6150772;23;20020;-73
2023/10/21 11:47:06;;;;;;;3.75;3.47;;;;;;;;;;6151395;23;20096;-74
2023/10/21 11:49:35;;;;;;;3.42;3.17;;;;;;;;;;6151498;23;20098;-73
2023/10/21 11:52:01;;;;;;;3.70;3.50;;;;;;;;;;6151196;23;20366;-73
2023/10/21 11:54:39;;;;;;;2.90;2.75;;;;;;;;;;6152863;23;20093;-73
2023/10/21 12:08:12;;;;;;;4.00;3.70;;;;;;;;;;6153073;23;20346;-73
2023/10/21 12:11:00;;;;;;;4.20;3.90;;;;;;;;;;6152020;23;20060;-72
2023/10/21 12:39:24;;;;;;;4.18;3.88;;;;;;;;;;6155245;23;20014;-74
2023/10/21 12:41:52;;;;;;;5.03;4.65;;;;;;;;;;6172425;23;20036;-74
2023/10/21 12:44:26;;;;;;;4.65;4.35;;;;;;;;;;6160647;23;20013;-74
2023/10/21 12:47:01;;;;;;;4.10;3.80;;;;;;;;;;6153026;23;20013;-75
2023/10/21 12:49:28;;;;;;;4.00;3.70;;;;;;;;;;6152846;23;20041;-74
2023/10/21 12:51:54;;;;;;;3.97;3.55;;;;;;;;;;6152626;23;20017;-73
2023/10/21 12:54:20;;;;;;;3.83;3.42;;;;;;;;;;6151101;23;20014;-74
2023/10/21 12:56:46;;;;;;;4.30;3.90;;;;;;;;;;6150656;23;20052;-74
2023/10/21 12:59:13;;;;;;;4.70;4.40;;;;;;;;;;6151074;23;20014;-74
2023/10/21 13:01:39;;;;;;;4.32;3.95;;;;;;;;;;6152086;23;20409;-75
2023/10/21 13:04:05;;;;;;;4.22;3.92;;;;;;;;;;6151111;23;20009;-76
2023/10/21 13:06:33;;;;;;;4.30;4.00;;;;;;;;;;6152140;23;20017;-76
2023/10/21 13:08:59;;;;;;;4.43;4.03;;;;;;;;;;6151285;23;20331;-75
2023/10/21 13:11:26;;;;;;;5.13;4.38;;;;;;;;;;6152384;23;20362;-74
2023/10/21 13:13:54;;;;;;;5.10;4.70;;;;;;;;;;6152643;23;20009;-74
2023/10/21 13:16:20;;;;;;;5.40;4.93;;;;;;;;;;6151961;23;20021;-74
2023/10/21 13:18:46;;;;;;;4.70;4.30;;;;;;;;;;6151647;23;20032;-73
2023/10/21 13:21:12;;;;;;;4.53;4.15;;;;;;;;;;6152903;23;20109;-74
2023/10/21 13:23:38;;;;;;;3.90;3.60;;;;;;;;;;6151916;23;20005;-73
2023/10/21 13:26:07;;;;;;;4.13;3.72;;;;;;;;;;6152121;23;20343;-73
2023/10/21 13:28:34;;;;;;;4.57;3.53;;;;;;;;;;6151345;23;20453;-75
2023/10/21 13:31:00;;;;;;;3.97;3.58;;;;;;;;;;6152145;23;20076;-74
2023/10/21 13:33:26;;;;;;;4.15;3.83;;;;;;;;;;6150167;23;20671;-73
2023/10/21 13:35:54;;;;;;;4.20;3.90;;;;;;;;;;6152111;23;20060;-73
2023/10/21 13:38:23;;;;;;;4.20;3.90;;;;;;;;;;6151833;23;20017;-73
2023/10/21 13:40:50;;;;;;;5.57;4.95;;;;;;;;;;6151944;23;20092;-72
2023/10/21 13:43:17;;;;;;;4.53;4.20;;;;;;;;;;6151746;23;20126;-72
2023/10/21 13:45:43;;;;;;;5.00;4.05;;;;;;;;;;6151572;23;20018;-72
2023/10/21 13:48:11;;;;;;;4.30;3.75;;;;;;;;;;6151534;23;20076;-73
2023/10/21 13:50:37;;;;;;;5.90;3.85;;;;;;;;;;6125748;23;20072;-72
2023/10/21 13:53:14;;;;;;;6.50;4.25;;;;;;;;;;6152137;23;20041;-72
2023/10/21 13:55:42;;;;;;;4.30;3.90;;;;;;;;;;6150873;23;20025;-71
2023/10/21 13:58:11;;;;;;;4.30;4.00;;;;;;;;;;6151389;23;20014;-72
2023/10/21 14:00:37;;;;;;;3.95;3.65;;;;;;;;;;6151206;23;20045;-73
2023/10/21 14:03:09;;;;;;;4.35;3.95;;;;;;;;;;6150200;23;20009;-72
2023/10/21 14:05:38;;;;;;;3.60;3.38;;;;;;;;;;6151418;23;20018;-72
2023/10/21 14:08:12;;;;;;;4.32;3.92;;;;;;;;;;6125751;23;20010;-71
2023/10/21 14:10:39;;;;;;;3.80;3.60;;;;;;;;;;6151517;23;20099;-71
2023/10/21 14:13:05;;;;;;;6.22;4.07;;;;;;;;;;6151739;23;20013;-72
2023/10/21 14:15:32;;;;;;;5.95;3.58;;;;;;;;;;6150117;23;20018;-72
2023/10/21 14:17:59;;;;;;;4.28;3.95;;;;;;;;;;6151536;23;20018;-72
2023/10/21 14:20:25;;;;;;;5.03;4.38;;;;;;;;;;6151764;23;20100;-72
2023/10/21 14:22:55;;;;;;;9.60;4.30;;;;;;;;;;6151633;23;20109;-72
2023/10/21 14:25:21;;;;;;;5.32;3.63;;;;;;;;;;6151723;23;20013;-71
2023/10/21 14:27:47;;;;;;;4.60;4.20;;;;;;;;;;6150964;23;20092;-71
2023/10/21 14:30:13;;;;;;;6.18;4.47;;;;;;;;;;6150170;23;20017;-72
2023/10/21 14:32:42;;;;;;;5.10;4.70;;;;;;;;;;6149335;23;20466;-72
2023/10/21 14:35:09;;;;;;;5.43;4.88;;;;;;;;;;6151379;23;20068;-72
2023/10/21 14:37:36;;;;;;;6.85;6.25;;;;;;;;;;6124755;23;20053;-71
2023/10/21 14:40:03;;;;;;;8.77;6.22;;;;;;;;;;6151540;23;20005;-72
2023/10/21 14:42:29;;;;;;;8.57;5.70;;;;;;;;;;6151350;23;20458;-71
2023/10/21 14:44:57;;;;;;;7.72;5.97;;;;;;;;;;6151580;23;20060;-73
2023/10/21 14:47:25;;;;;;;14.43;7.60;;;;;;;;;;6174554;23;20009;-72
2023/10/21 14:49:53;;;;;;;11.52;8.40;;;;;;;;;;6152489;23;20452;-73
2023/10/21 14:52:20;;;;;;;13.75;7.82;;;;;;;;;;6153242;23;20017;-72
2023/10/21 14:54:47;;;;;;;10.30;7.70;;;;;;;;;;6150971;23;20079;-72
2023/10/21 14:57:13;;;;;;;12.05;8.05;;;;;;;;;;6153534;23;20029;-72
2023/10/21 14:59:40;;;;;;;13.25;8.63;;;;;;;;;;6152980;23;20009;-72
2023/10/21 15:02:06;;;;;;;13.18;8.85;;;;;;;;;;6153425;23;20013;-72
2023/10/21 15:04:32;;;;;;;27.45;10.93;;;;;;;;;;6153596;23;20009;-71
2023/10/21 15:06:58;;;;;;;22.35;11.25;;;;;;;;;;6153547;23;20020;-72
2023/10/21 15:09:24;;;;;;;18.30;10.27;;;;;;;;;;6152279;23;20010;-72
2023/10/21 15:11:50;;;;;;;23.23;10.20;;;;;;;;;;6153162;23;20514;-72
2023/10/21 15:14:17;;;;;;;16.27;9.45;;;;;;;;;;6154367;23;20009;-71
2023/10/21 15:16:43;;;;;;;23.65;10.35;;;;;;;;;;6152973;23;20021;-72